createdAt,value
2023-05-13T00:00:28.037Z,10.49
2023-05-13T00:02:57.790Z,10.45
2023-05-13T00:05:26.190Z,10.48
2023-05-13T00:07:54.714Z,10.46
2023-05-13T00:10:23.966Z,10.41
2023-05-13T00:12:52.624Z,10.38
2023-05-13T00:15:21.067Z,10.33
2023-05-13T00:17:49.584Z,10.39
2023-05-13T00:20:19.926Z,10.35
2023-05-13T00:22:48.662Z,10.41
2023-05-13T00:25:17.406Z,10.36
2023-05-13T00:27:45.762Z,10.39
2023-05-13T00:30:14.038Z,10.44
2023-05-13T00:32:42.533Z,10.38
2023-05-13T00:35:11.124Z,10.38
2023-05-13T00:37:40.720Z,10.33
2023-05-13T00:40:22.988Z,10.34
2023-05-13T00:42:51.519Z,10.29
2023-05-13T00:45:19.773Z,10.29
2023-05-13T00:47:49.890Z,10.27
2023-05-13T00:50:18.060Z,10.27
2023-05-13T00:52:48.951Z,10.21
2023-05-13T00:55:17.195Z,10.26
2023-05-13T00:57:45.452Z,10.18
2023-05-13T01:00:15.847Z,10.21
2023-05-13T01:02:51.370Z,10.20
2023-05-13T01:05:27.656Z,10.22
2023-05-13T01:08:04.917Z,10.21
2023-05-13T01:10:39.659Z,10.27
2023-05-13T01:13:12.520Z,10.14
2023-05-13T01:15:45.920Z,10.23
2023-05-13T01:18:19.127Z,10.18
2023-05-13T01:20:47.993Z,10.20
2023-05-13T01:23:17.715Z,10.20
2023-05-13T01:25:46.290Z,10.18
2023-05-13T01:28:15.084Z,10.17
2023-05-13T01:30:48.008Z,10.17
2023-05-13T01:33:17.776Z,10.18
2023-05-13T01:35:48.539Z,10.03
2023-05-13T01:38:21.415Z,10.06
2023-05-13T01:40:54.462Z,10.15
2023-05-13T01:43:23.885Z,10.12
2023-05-13T01:45:52.742Z,10.12
2023-05-13T01:48:21.566Z,10.11
2023-05-13T01:50:50.642Z,10.09
2023-05-13T01:53:20.402Z,10.07
2023-05-13T01:55:51.417Z,10.09
2023-05-13T01:58:19.646Z,10.10
2023-05-13T02:00:48.172Z,10.04
2023-05-13T02:03:16.556Z,10.07
2023-05-13T02:05:44.809Z,10.08
2023-05-13T02:08:13.485Z,10.08
2023-05-13T02:10:43.142Z,10.06
2023-05-13T02:13:12.234Z,10.06
2023-05-13T02:15:41.323Z,10.04
2023-05-13T02:18:09.500Z,10.01
2023-05-13T02:20:37.942Z,10.04
2023-05-13T02:23:06.117Z,10.12
2023-05-13T02:25:35.674Z,9.99
2023-05-13T02:28:05.904Z,10.04
2023-05-13T02:30:34.417Z,10.07
2023-05-13T02:33:02.926Z,10.04
2023-05-13T02:35:31.225Z,10.09
2023-05-13T02:38:04.122Z,10.01
2023-05-13T02:40:34.050Z,10.03
2023-05-13T02:43:02.504Z,9.98
2023-05-13T02:45:45.037Z,10.04
2023-05-13T02:48:13.413Z,10.03
2023-05-13T02:50:41.567Z,10.04
2023-05-13T02:53:11.729Z,10.01
2023-05-13T02:56:10.317Z,10.04
2023-05-13T02:58:38.692Z,10.06
2023-05-13T03:01:08.651Z,10.06
2023-05-13T03:03:37.178Z,10.07
2023-05-13T03:06:06.335Z,10.05
2023-05-13T03:08:34.582Z,10.09
2023-05-13T03:11:02.778Z,10.08
2023-05-13T03:13:31.014Z,10.01
2023-05-13T03:15:59.280Z,9.98
2023-05-13T03:18:31.680Z,9.96
2023-05-13T03:21:01.719Z,9.99
2023-05-13T03:23:29.859Z,9.95
2023-05-13T03:25:59.666Z,9.98
2023-05-13T03:28:27.930Z,9.97
2023-05-13T03:30:56.210Z,9.94
2023-05-13T03:33:24.528Z,9.97
2023-05-13T03:35:54.248Z,9.93
2023-05-13T03:38:27.029Z,9.93
2023-05-13T03:40:55.602Z,9.85
2023-05-13T03:43:23.985Z,9.92
2023-05-13T03:45:57.290Z,9.95
2023-05-13T03:48:25.709Z,10.01
2023-05-13T03:50:57.488Z,9.94
2023-05-13T03:53:26.058Z,10.00
2023-05-13T03:55:55.860Z,9.95
2023-05-13T03:58:24.343Z,9.96
2023-05-13T04:00:52.867Z,9.93
2023-05-13T04:03:21.301Z,9.93
2023-05-13T04:05:51.059Z,9.90
2023-05-13T04:08:21.455Z,9.90
2023-05-13T04:10:50.666Z,9.94
2023-05-13T04:13:46.114Z,10.00
2023-05-13T04:16:14.575Z,9.96
2023-05-13T04:18:43.092Z,9.89
2023-05-13T04:21:11.501Z,9.90
2023-05-13T04:23:41.218Z,9.89
2023-05-13T04:26:09.710Z,9.91
2023-05-13T04:28:38.086Z,9.94
2023-05-13T04:31:06.445Z,9.91
2023-05-13T04:33:37.178Z,9.88
2023-05-13T04:36:06.077Z,9.90
2023-05-13T04:38:34.469Z,9.91
2023-05-13T04:41:08.354Z,9.92
2023-05-13T04:43:42.068Z,9.90
2023-05-13T04:46:10.277Z,9.93
2023-05-13T04:48:38.723Z,9.90
2023-05-13T04:51:07.624Z,9.95
2023-05-13T04:54:02.405Z,9.91
2023-05-13T04:56:32.493Z,9.88
2023-05-13T04:59:00.978Z,9.96
2023-05-13T05:01:29.781Z,9.83
2023-05-13T05:03:59.828Z,9.86
2023-05-13T05:06:28.275Z,9.92
2023-05-13T05:08:57.167Z,9.92
2023-05-13T05:11:25.958Z,9.92
2023-05-13T05:13:56.074Z,9.96
2023-05-13T05:16:25.295Z,9.96
2023-05-13T05:18:53.896Z,9.93
2023-05-13T05:21:22.272Z,9.96
2023-05-13T05:23:50.737Z,9.99
2023-05-13T05:26:19.510Z,9.93
2023-05-13T05:28:49.023Z,9.91
2023-05-13T05:31:20.560Z,9.90
2023-05-13T05:33:49.226Z,9.98
2023-05-13T05:36:18.325Z,9.98
2023-05-13T05:38:47.453Z,10.00
2023-05-13T05:41:20.025Z,10.02
2023-05-13T05:43:49.079Z,10.00
2023-05-13T05:46:17.618Z,9.98
2023-05-13T05:48:47.720Z,9.98
2023-05-13T05:51:16.611Z,10.02
2023-05-13T05:53:45.785Z,9.97
2023-05-13T05:56:16.806Z,10.02
2023-05-13T05:58:46.758Z,10.01
2023-05-13T06:01:15.021Z,9.99
2023-05-13T06:03:43.287Z,9.99
2023-05-13T06:06:13.015Z,9.99
2023-05-13T06:08:41.382Z,10.01
2023-05-13T06:11:09.649Z,10.07
2023-05-13T06:13:38.565Z,9.93
2023-05-13T06:16:07.361Z,10.00
2023-05-13T06:18:35.653Z,9.99
2023-05-13T06:21:05.195Z,10.03
2023-05-13T06:23:34.797Z,10.01
2023-05-13T06:26:02.988Z,10.06
2023-05-13T06:28:31.465Z,10.04
2023-05-13T06:30:59.680Z,10.00
2023-05-13T06:33:27.859Z,10.08
2023-05-13T06:35:57.525Z,10.06
2023-05-13T06:38:27.021Z,10.11
2023-05-13T06:40:59.792Z,10.09
2023-05-13T06:43:33.324Z,10.14
2023-05-13T06:46:13.077Z,10.18
2023-05-13T06:48:41.325Z,10.17
2023-05-13T06:51:09.662Z,10.18
2023-05-13T06:54:03.678Z,10.12
2023-05-13T06:56:33.337Z,10.17
2023-05-13T06:59:02.230Z,10.20
2023-05-13T07:01:31.888Z,10.19
2023-05-13T07:04:00.334Z,10.15
2023-05-13T07:11:18.868Z,10.31
2023-05-13T07:13:48.590Z,10.36
2023-05-13T07:16:18.443Z,10.29
2023-05-13T07:18:46.616Z,10.32
2023-05-13T07:21:15.348Z,10.37
2023-05-13T07:23:44.784Z,10.30
2023-05-13T07:26:13.186Z,10.41
2023-05-13T07:28:41.312Z,10.40
2023-05-13T07:31:11.026Z,10.34
2023-05-13T07:33:39.249Z,10.31
2023-05-13T07:36:08.033Z,10.41
2023-05-13T07:38:36.298Z,10.41
2023-05-13T07:41:04.576Z,10.48
2023-05-13T07:43:35.115Z,10.48
2023-05-13T07:46:04.415Z,10.41
2023-05-13T07:48:34.124Z,10.46
2023-05-13T07:51:02.981Z,10.42
2023-05-13T07:53:31.444Z,10.54
2023-05-13T07:55:59.677Z,10.56
2023-05-13T07:58:27.977Z,10.58
2023-05-13T08:00:58.870Z,10.64
2023-05-13T08:03:30.607Z,10.55
2023-05-13T08:06:00.178Z,10.63
2023-05-13T08:08:28.618Z,10.73
2023-05-13T08:10:57.023Z,10.65
2023-05-13T08:13:25.803Z,10.73
2023-05-13T08:15:53.938Z,10.70
2023-05-13T08:18:22.024Z,10.73
2023-05-13T08:20:50.327Z,10.70
2023-05-13T08:23:20.828Z,10.77
2023-05-13T08:25:49.105Z,10.72
2023-05-13T08:28:18.085Z,10.78
2023-05-13T08:30:46.773Z,10.85
2023-05-13T08:33:14.969Z,10.86
2023-05-13T08:35:44.833Z,10.89
2023-05-13T08:38:13.270Z,10.95
2023-05-13T08:40:43.313Z,10.87
2023-05-13T08:43:15.151Z,10.95
2023-05-13T08:45:45.168Z,11.00
2023-05-13T08:48:15.871Z,11.00
2023-05-13T08:50:45.393Z,11.04
2023-05-13T08:53:14.073Z,11.00
2023-05-13T08:55:44.094Z,11.15
2023-05-13T08:58:12.827Z,11.14
2023-05-13T09:00:41.638Z,11.20
2023-05-13T09:03:09.954Z,11.23
2023-05-13T09:05:39.087Z,11.28
2023-05-13T09:08:10.439Z,11.34
2023-05-13T09:10:39.398Z,11.40
2023-05-13T09:13:08.983Z,11.47
2023-05-13T09:15:37.239Z,11.49
2023-05-13T09:18:07.461Z,11.48
2023-05-13T09:20:36.575Z,11.56
2023-05-13T09:23:07.117Z,11.53
2023-05-13T09:25:36.125Z,11.55
2023-05-13T09:28:06.623Z,11.60
2023-05-13T09:30:38.669Z,11.60
2023-05-13T09:33:11.470Z,11.57
2023-05-13T09:35:41.683Z,11.67
2023-05-13T09:38:17.542Z,11.69
2023-05-13T09:40:54.146Z,11.75
2023-05-13T09:43:23.833Z,11.80
2023-05-13T09:45:56.625Z,11.76
2023-05-13T09:48:27.044Z,11.81
2023-05-13T09:50:56.279Z,11.83
2023-05-13T09:53:24.475Z,11.91
2023-05-13T09:55:54.368Z,11.95
2023-05-13T09:58:25.534Z,12.03
2023-05-13T10:00:55.909Z,11.98
2023-05-13T10:03:24.350Z,11.96
2023-05-13T10:05:53.687Z,12.00
2023-05-13T10:08:23.465Z,12.01
2023-05-13T10:10:55.102Z,12.18
2023-05-13T10:13:39.500Z,12.16
2023-05-13T10:16:12.718Z,12.20
2023-05-13T10:18:41.271Z,12.27
2023-05-13T10:21:09.912Z,12.30
2023-05-13T10:23:38.817Z,12.48
2023-05-13T10:26:08.308Z,12.64
2023-05-13T10:28:37.325Z,12.66
2023-05-13T10:31:05.672Z,12.69
2023-05-13T10:33:35.704Z,12.74
2023-05-13T10:36:18.713Z,12.84
2023-05-13T10:39:04.023Z,12.85
2023-05-13T10:41:58.167Z,12.80
2023-05-13T10:44:26.963Z,12.89
2023-05-13T10:46:59.877Z,12.93
2023-05-13T10:49:36.575Z,13.09
2023-05-13T10:52:11.561Z,12.97
2023-05-13T10:54:42.235Z,13.06
2023-05-13T10:57:11.057Z,13.10
2023-05-13T11:00:18.093Z,13.09
2023-05-13T11:02:46.985Z,13.09
2023-05-13T11:05:22.715Z,13.13
2023-05-13T11:07:57.654Z,13.09
2023-05-13T11:10:28.612Z,13.10
2023-05-13T11:13:16.117Z,13.06
2023-05-13T11:15:46.297Z,13.09
2023-05-13T11:18:14.990Z,13.17
2023-05-13T11:20:52.635Z,13.16
2023-05-13T11:23:22.600Z,13.23
2023-05-13T11:26:12.618Z,13.34
2023-05-13T11:28:58.991Z,13.30
2023-05-13T11:31:29.321Z,13.35
2023-05-13T11:34:16.673Z,13.38
2023-05-13T11:36:50.055Z,13.47
2023-05-13T11:39:23.860Z,13.39
2023-05-13T11:41:53.744Z,13.50
2023-05-13T11:44:23.190Z,13.71
2023-05-13T11:46:56.760Z,13.79
2023-05-13T11:49:35.907Z,13.93
2023-05-13T11:52:07.674Z,13.80
2023-05-13T11:55:50.971Z,13.90
2023-05-13T11:58:19.662Z,13.96
2023-05-13T12:00:47.901Z,14.06
2023-05-13T12:03:16.519Z,14.36
2023-05-13T12:05:45.257Z,14.36
2023-05-13T12:08:15.186Z,14.63
2023-05-13T12:10:46.885Z,14.86
2023-05-13T12:13:15.788Z,14.72
2023-05-13T12:15:47.067Z,14.79
2023-05-13T12:18:17.700Z,14.41
2023-05-13T12:20:53.457Z,14.46
2023-05-13T12:23:23.169Z,14.61
2023-05-13T12:25:54.467Z,14.74
2023-05-13T12:28:32.044Z,14.70
2023-05-13T12:31:01.881Z,14.90
2023-05-13T12:33:32.212Z,14.99
2023-05-13T12:36:20.185Z,15.39
2023-05-13T12:39:00.149Z,15.11
2023-05-13T12:41:31.281Z,14.89
2023-05-13T12:44:01.831Z,15.12
2023-05-13T12:46:30.431Z,15.22
2023-05-13T12:49:00.194Z,15.03
2023-05-13T12:51:29.990Z,15.23
2023-05-13T12:54:02.201Z,15.13
2023-05-13T12:56:30.350Z,15.19
2023-05-13T12:58:59.076Z,15.37
2023-05-13T13:01:27.412Z,15.37
2023-05-13T13:03:55.961Z,15.52
2023-05-13T13:06:24.584Z,15.43
2023-05-13T13:08:52.999Z,15.38
2023-05-13T13:12:34.799Z,15.41
2023-05-13T13:15:04.892Z,15.30
2023-05-13T13:17:33.636Z,15.20
2023-05-13T13:20:03.283Z,15.19
2023-05-13T13:22:32.174Z,15.29
2023-05-13T13:25:01.113Z,15.36
2023-05-13T13:27:32.634Z,15.28
2023-05-13T13:30:01.587Z,15.32
2023-05-13T13:32:32.084Z,15.14
2023-05-13T13:35:01.094Z,14.93
2023-05-13T13:37:32.064Z,14.80
2023-05-13T13:40:00.085Z,14.83
2023-05-13T13:42:36.822Z,14.87
2023-05-13T13:45:25.977Z,14.74
2023-05-13T13:48:00.496Z,14.40
2023-05-13T13:50:29.329Z,14.55
2023-05-13T13:52:57.454Z,14.62
2023-05-13T13:55:25.984Z,14.71
2023-05-13T13:57:55.483Z,14.62
2023-05-13T14:00:24.356Z,14.77
2023-05-13T14:02:53.193Z,14.67
2023-05-13T14:05:25.326Z,14.61
2023-05-13T14:07:58.204Z,14.61
2023-05-13T14:10:29.772Z,14.61
2023-05-13T14:13:00.625Z,14.53
2023-05-13T14:15:30.875Z,14.49
2023-05-13T14:17:59.422Z,14.51
2023-05-13T14:20:30.205Z,14.51
2023-05-13T14:23:06.466Z,14.62
2023-05-13T14:25:38.861Z,14.47
2023-05-13T14:28:10.300Z,14.46
2023-05-13T14:30:45.281Z,14.52
2023-05-13T14:33:20.585Z,14.55
2023-05-13T14:35:56.642Z,14.53
2023-05-13T14:38:31.568Z,14.38
2023-05-13T14:41:09.269Z,14.41
2023-05-13T14:43:42.434Z,14.43
2023-05-13T14:46:13.815Z,14.44
2023-05-13T14:48:42.897Z,14.50
2023-05-13T14:51:38.375Z,14.58
2023-05-13T14:54:07.080Z,14.55
2023-05-13T14:56:36.666Z,14.56
2023-05-13T14:59:07.736Z,14.44
2023-05-13T15:01:38.981Z,14.41
2023-05-13T15:04:08.735Z,14.45
2023-05-13T15:06:39.526Z,14.40
2023-05-13T15:09:09.020Z,14.49
2023-05-13T15:11:40.510Z,14.51
2023-05-13T15:14:11.810Z,14.37
2023-05-13T15:16:40.640Z,14.41
2023-05-13T15:19:14.268Z,14.53
2023-05-13T15:21:45.545Z,14.55
2023-05-13T15:24:14.751Z,14.59
2023-05-13T15:26:54.729Z,14.51
2023-05-13T15:29:36.339Z,14.46
2023-05-13T15:32:06.776Z,14.46
2023-05-13T15:34:44.544Z,14.32
2023-05-13T15:37:28.522Z,14.28
2023-05-13T15:40:00.365Z,14.27
2023-05-13T15:42:30.249Z,14.23
2023-05-13T15:44:59.140Z,14.19
2023-05-13T15:47:28.825Z,14.20
2023-05-13T15:49:57.552Z,14.09
2023-05-13T15:52:54.620Z,14.12
2023-05-13T15:55:32.309Z,14.06
2023-05-13T15:58:01.096Z,14.05
2023-05-13T16:00:29.556Z,14.02
2023-05-13T16:02:58.400Z,14.06
2023-05-13T16:05:26.992Z,14.05
2023-05-13T16:07:57.858Z,14.06
2023-05-13T16:10:26.417Z,13.90
2023-05-13T16:12:54.962Z,13.75
2023-05-13T16:15:23.381Z,13.87
2023-05-13T16:17:52.663Z,13.90
2023-05-13T16:20:21.343Z,13.81
2023-05-13T16:22:49.828Z,13.82
2023-05-13T16:25:24.207Z,13.72
2023-05-13T16:27:54.696Z,13.73
2023-05-13T16:30:23.894Z,13.70
2023-05-13T16:32:54.667Z,13.74
2023-05-13T16:35:23.546Z,13.72
2023-05-13T16:37:51.763Z,13.65
2023-05-13T16:40:21.799Z,13.62
2023-05-13T16:42:50.467Z,13.62
2023-05-13T16:45:19.001Z,13.53
2023-05-13T16:47:48.153Z,13.50
2023-05-13T16:50:16.866Z,13.45
2023-05-13T16:52:45.736Z,13.39
2023-05-13T16:55:14.816Z,13.38
2023-05-13T16:57:46.878Z,13.45
2023-05-13T17:00:16.214Z,13.38
2023-05-13T17:02:45.427Z,13.40
2023-05-13T17:05:14.570Z,13.34
2023-05-13T17:07:43.371Z,13.30
2023-05-13T17:10:13.213Z,13.36
2023-05-13T17:12:44.956Z,13.32
2023-05-13T17:15:18.125Z,13.24
2023-05-13T17:17:47.511Z,13.15
2023-05-13T17:20:16.102Z,13.17
2023-05-13T17:22:47.496Z,13.17
2023-05-13T17:25:16.678Z,13.12
2023-05-13T17:27:45.354Z,13.07
2023-05-13T17:30:18.681Z,13.11
2023-05-13T17:32:47.345Z,13.09
2023-05-13T17:35:16.252Z,13.09
2023-05-13T17:37:45.236Z,13.14
2023-05-13T17:40:38.680Z,13.17
2023-05-13T17:43:09.442Z,13.11
2023-05-13T17:45:58.695Z,13.09
2023-05-13T17:48:34.191Z,13.08
2023-05-13T17:51:02.651Z,13.07
2023-05-13T17:53:32.943Z,13.09
2023-05-13T17:56:11.402Z,13.04
2023-05-13T17:58:46.753Z,12.95
2023-05-13T18:01:21.966Z,12.93
2023-05-13T18:03:50.848Z,12.92
2023-05-13T18:06:19.465Z,12.89
2023-05-13T18:08:48.221Z,12.85
2023-05-13T18:11:19.826Z,12.90
2023-05-13T18:14:03.814Z,12.80
2023-05-13T18:16:42.955Z,12.74
2023-05-13T18:19:18.574Z,12.75
2023-05-13T18:21:47.957Z,12.80
2023-05-13T18:24:17.447Z,12.76
2023-05-13T18:26:46.875Z,12.75
2023-05-13T18:29:38.910Z,12.77
2023-05-13T18:32:10.085Z,12.70
2023-05-13T18:34:38.683Z,12.63
2023-05-13T18:37:11.301Z,12.71
2023-05-13T18:40:19.436Z,12.58
2023-05-13T18:42:48.895Z,12.70
2023-05-13T18:45:23.138Z,12.63
2023-05-13T18:47:56.651Z,12.51
2023-05-13T18:50:28.987Z,12.60
2023-05-13T18:52:57.714Z,12.51
2023-05-13T18:55:27.575Z,12.54
2023-05-13T18:57:56.430Z,12.55
2023-05-13T19:00:25.642Z,12.57
2023-05-13T19:02:56.352Z,12.54
2023-05-13T19:05:35.834Z,12.47
2023-05-13T19:08:07.904Z,12.52
2023-05-13T19:11:04.738Z,12.47
2023-05-13T19:13:46.697Z,12.50
2023-05-13T19:16:20.281Z,12.47
2023-05-13T19:18:50.458Z,12.43
2023-05-13T19:21:19.154Z,12.38
2023-05-13T19:23:47.582Z,12.37
2023-05-13T19:26:16.483Z,12.38
2023-05-13T19:28:46.056Z,12.35
2023-05-13T19:31:17.226Z,12.28
2023-05-13T19:34:00.497Z,12.18
2023-05-13T19:36:34.021Z,12.26
2023-05-13T19:39:02.571Z,12.27
2023-05-13T19:41:34.767Z,12.20
2023-05-13T19:44:03.656Z,12.22
2023-05-13T19:46:32.931Z,12.23
2023-05-13T19:49:01.645Z,12.15
2023-05-13T19:51:30.314Z,12.16
2023-05-13T19:54:00.474Z,12.05
2023-05-13T19:56:29.429Z,12.05
2023-05-13T19:59:00.809Z,12.06
2023-05-13T20:01:33.007Z,12.03
2023-05-13T20:04:01.676Z,12.00
2023-05-13T20:06:34.076Z,12.01
2023-05-13T20:09:13.565Z,12.05
2023-05-13T20:11:44.759Z,11.86
2023-05-13T20:14:17.359Z,11.96
2023-05-13T20:16:46.814Z,11.87
2023-05-13T20:19:19.809Z,11.91
2023-05-13T20:21:51.035Z,11.89
2023-05-13T20:24:21.089Z,11.90
2023-05-13T20:26:50.104Z,11.89
2023-05-13T20:29:23.812Z,11.87
2023-05-13T20:31:52.403Z,11.87
2023-05-13T20:34:21.176Z,11.87
2023-05-13T20:36:51.308Z,11.81
2023-05-13T20:39:21.279Z,11.81
2023-05-13T20:41:50.201Z,11.77
2023-05-13T20:44:25.589Z,11.79
2023-05-13T20:46:54.273Z,11.73
2023-05-13T20:49:22.935Z,11.70
2023-05-13T20:51:57.783Z,11.72
2023-05-13T20:54:30.813Z,11.66
2023-05-13T20:57:01.292Z,11.61
2023-05-13T20:59:30.055Z,11.59
2023-05-13T21:02:01.076Z,11.54
2023-05-13T21:04:29.802Z,11.57
2023-05-13T21:06:58.550Z,11.51
2023-05-13T21:09:28.451Z,11.54
2023-05-13T21:11:56.776Z,11.54
2023-05-13T21:14:27.384Z,11.52
2023-05-13T21:16:55.976Z,11.51
2023-05-13T21:19:28.510Z,11.49
2023-05-13T21:21:57.941Z,11.42
2023-05-13T21:24:28.167Z,11.42
2023-05-13T21:26:57.995Z,11.35
2023-05-13T21:29:30.359Z,11.37
2023-05-13T21:31:58.728Z,11.41
2023-05-13T21:34:27.389Z,11.30
2023-05-13T21:36:55.861Z,11.32
2023-05-13T21:39:24.248Z,11.34
2023-05-13T21:41:52.468Z,11.33
2023-05-13T21:44:22.001Z,11.30
2023-05-13T21:46:50.375Z,11.28
2023-05-13T21:49:18.784Z,11.26
2023-05-13T21:51:47.141Z,11.30
2023-05-13T21:54:15.509Z,11.31
2023-05-13T21:56:43.893Z,11.26
2023-05-13T21:59:12.111Z,11.20
2023-05-13T22:01:42.022Z,11.15
2023-05-13T22:04:10.401Z,11.21
2023-05-13T22:06:38.735Z,11.16
2023-05-13T22:09:07.022Z,11.19
2023-05-13T22:11:36.461Z,11.17
2023-05-13T22:14:05.329Z,11.15
2023-05-13T22:16:33.690Z,11.14
2023-05-13T22:19:04.736Z,11.04
2023-05-13T22:21:33.456Z,11.09
2023-05-13T22:24:01.889Z,11.15
2023-05-13T22:26:30.194Z,11.15
2023-05-13T22:28:58.677Z,11.12
2023-05-13T22:31:27.468Z,11.08
2023-05-13T22:33:55.934Z,11.07
2023-05-13T22:36:25.750Z,11.04
2023-05-13T22:38:54.227Z,11.08
2023-05-13T22:41:23.931Z,11.05
2023-05-13T22:43:54.761Z,11.00
2023-05-13T22:46:23.171Z,10.97
2023-05-13T22:48:51.624Z,10.94
2023-05-13T22:51:19.897Z,10.98
2023-05-13T22:53:49.606Z,10.87
2023-05-13T22:56:17.966Z,10.86
2023-05-13T22:58:46.551Z,10.80
2023-05-13T23:01:16.389Z,10.75
2023-05-13T23:03:44.776Z,10.72
2023-05-13T23:06:13.531Z,10.79
2023-05-13T23:08:42.078Z,10.79
2023-05-13T23:11:11.789Z,10.78
2023-05-13T23:13:40.288Z,10.76
2023-05-13T23:16:08.637Z,10.81
2023-05-13T23:18:36.989Z,10.75
2023-05-13T23:21:05.643Z,10.73
2023-05-13T23:23:34.121Z,10.64
2023-05-13T23:26:02.186Z,10.67
2023-05-13T23:28:31.801Z,10.69
2023-05-13T23:30:59.896Z,10.68
2023-05-13T23:33:28.134Z,10.72
2023-05-13T23:35:56.733Z,10.73
2023-05-13T23:38:25.090Z,10.68
2023-05-13T23:40:53.903Z,10.70
2023-05-13T23:43:21.928Z,10.64
2023-05-13T23:45:51.434Z,10.64
2023-05-13T23:48:45.147Z,10.67
2023-05-13T23:51:13.399Z,10.64
2023-05-13T23:53:41.597Z,10.63
2023-05-13T23:56:09.856Z,10.60
2023-05-13T23:58:37.926Z,10.62
